TAIP24 YCBG-YCBG
Flight info
| Callsign | TAIP24 |
|---|---|
| Flight time | 0h 6m |
| Altitude | 1500 |
| Route | VFR |
| Aircraft | 135/L-V/N |
Departure
| Time | 2026-04-23 10:27 |
|---|---|
| Airport | Cambridge Aerodrome (YCBG) |
Arrival
| Time | 2026-04-23 10:33 |
|---|---|
| Airport | Cambridge Aerodrome (YCBG) |
| Time | Latitude | Longitude | Altitude | Speed | Heading |
|---|---|---|---|---|---|
| 2026-04-23 10:09 | -42.82967 | 147.47751 | 57 ft | 0 kts | 281° |
| 2026-04-23 10:19 | -42.82966 | 147.47749 | 59 ft | 2 kts | 269° |
| 2026-04-23 10:19 | -42.82943 | 147.47752 | 64 ft | 4 kts | 11° |
| 2026-04-23 10:19 | -42.82921 | 147.47769 | 65 ft | 2 kts | 84° |
| 2026-04-23 10:19 | -42.82930 | 147.47830 | 60 ft | 8 kts | 99° |
| 2026-04-23 10:20 | -42.82943 | 147.47896 | 58 ft | 6 kts | 101° |
| 2026-04-23 10:20 | -42.82961 | 147.47986 | 55 ft | 13 kts | 105° |
| 2026-04-23 10:20 | -42.83005 | 147.48160 | 47 ft | 19 kts | 106° |
| 2026-04-23 10:20 | -42.83038 | 147.48320 | 36 ft | 9 kts | 104° |
| 2026-04-23 10:21 | -42.83020 | 147.48375 | 35 ft | 7 kts | 325° |
| 2026-04-23 10:21 | -42.83004 | 147.48370 | 32 ft | 0 kts | 325° |
| 2026-04-23 10:23 | -42.82981 | 147.48363 | 39 ft | 5 kts | 309° |
| 2026-04-23 10:23 | -42.82951 | 147.48302 | 42 ft | 7 kts | 270° |
| 2026-04-23 10:23 | -42.82921 | 147.48149 | 105 ft | 24 kts | 276° |
| 2026-04-23 10:23 | -42.82856 | 147.47818 | 273 ft | 49 kts | 279° |
| 2026-04-23 10:24 | -42.82752 | 147.47275 | 358 ft | 62 kts | 275° |
| 2026-04-23 10:24 | -42.82760 | 147.46732 | 400 ft | 56 kts | 224° |
| 2026-04-23 10:24 | -42.83087 | 147.46689 | 401 ft | 52 kts | 130° |
| 2026-04-23 10:24 | -42.83234 | 147.47182 | 444 ft | 61 kts | 95° |
| 2026-04-23 10:25 | -42.83325 | 147.47761 | 543 ft | 62 kts | 91° |
| 2026-04-23 10:25 | -42.83464 | 147.48294 | 645 ft | 63 kts | 100° |
| 2026-04-23 10:25 | -42.83583 | 147.48895 | 641 ft | 58 kts | 65° |
| 2026-04-23 10:25 | -42.83296 | 147.49114 | 431 ft | 55 kts | 333° |
| 2026-04-23 10:26 | -42.83040 | 147.48753 | 181 ft | 46 kts | 259° |
| 2026-04-23 10:26 | -42.82971 | 147.48412 | 70 ft | 24 kts | 272° |
| 2026-04-23 10:26 | -42.82952 | 147.48325 | 37 ft | 8 kts | 272° |
| 2026-04-23 10:26 | -42.82925 | 147.48186 | 90 ft | 38 kts | 270° |
| 2026-04-23 10:27 | -42.82797 | 147.47519 | 261 ft | 87 kts | 284° |
| 2026-04-23 10:27 | -42.82628 | 147.46706 | 492 ft | 90 kts | 286° |
| 2026-04-23 10:27 | -42.82441 | 147.45897 | 732 ft | 89 kts | 287° |
| 2026-04-23 10:27 | -42.82301 | 147.45075 | 953 ft | 91 kts | 281° |
| 2026-04-23 10:28 | -42.82190 | 147.44212 | 1131 ft | 95 kts | 282° |
| 2026-04-23 10:28 | -42.82059 | 147.43282 | 1255 ft | 99 kts | 282° |
| 2026-04-23 10:28 | -42.82294 | 147.42458 | 1498 ft | 101 kts | 216° |
| 2026-04-23 10:28 | -42.82890 | 147.42575 | 1673 ft | 84 kts | 129° |
| 2026-04-23 10:29 | -42.83179 | 147.42935 | 1642 ft | 76 kts | 115° |
| 2026-04-23 10:31 | -42.83411 | 147.43198 | 1666 ft | 49 kts | 116° |
| 2026-04-23 10:31 | -42.83601 | 147.43497 | 1574 ft | 36 kts | 96° |
| 2026-04-23 10:31 | -42.83650 | 147.44026 | 1409 ft | 89 kts | 64° |
| 2026-04-23 10:31 | -42.83286 | 147.45016 | 748 ft | 129 kts | 45° |
| 2026-04-23 10:32 | -42.83003 | 147.46121 | 455 ft | 121 kts | 83° |
| 2026-04-23 10:32 | -42.83152 | 147.47130 | 371 ft | 96 kts | 92° |
| 2026-04-23 10:32 | -42.83313 | 147.47911 | 358 ft | 76 kts | 98° |
| 2026-04-23 10:32 | -42.83525 | 147.48564 | 377 ft | 75 kts | 102° |
| 2026-04-23 10:33 | -42.83386 | 147.49040 | 295 ft | 63 kts | 351° |
| 2026-04-23 10:33 | -42.83049 | 147.48688 | 206 ft | 53 kts | 278° |
| 2026-04-23 10:33 | -42.82958 | 147.48369 | 114 ft | 26 kts | 249° |
| 2026-04-23 10:33 | -42.82946 | 147.48282 | 38 ft | 1 kts | 276° |
| 2026-04-23 10:34 | -42.82938 | 147.48242 | 35 ft | 13 kts | 269° |
| 2026-04-23 10:34 | -42.82870 | 147.47821 | 171 ft | 83 kts | 282° |
| 2026-04-23 10:34 | -42.82671 | 147.46985 | 269 ft | 94 kts | 283° |
| 2026-04-23 10:34 | -42.82853 | 147.46549 | 513 ft | 54 kts | 161° |
| 2026-04-23 10:35 | -42.83120 | 147.46977 | 568 ft | 71 kts | 107° |
| 2026-04-23 10:35 | -42.83387 | 147.47563 | 666 ft | 73 kts | 114° |
| 2026-04-23 10:35 | -42.83640 | 147.48071 | 806 ft | 61 kts | 109° |
| 2026-04-23 10:35 | -42.83886 | 147.48628 | 717 ft | 77 kts | 106° |
| 2026-04-23 10:36 | -42.84008 | 147.49295 | 644 ft | 69 kts | 50° |
| 2026-04-23 10:36 | -42.83586 | 147.49588 | 438 ft | 74 kts | 343° |
| 2026-04-23 10:36 | -42.83167 | 147.49228 | 276 ft | 74 kts | 294° |
| 2026-04-23 10:36 | -42.83012 | 147.48630 | 130 ft | 59 kts | 266° |
| 2026-04-23 10:37 | -42.82946 | 147.48204 | 87 ft | 31 kts | 260° |
| 2026-04-23 10:37 | -42.82933 | 147.47965 | 82 ft | 26 kts | 275° |
| 2026-04-23 10:37 | -42.82942 | 147.47816 | 68 ft | 7 kts | 274° |
| 2026-04-23 10:37 | -42.82950 | 147.47772 | 66 ft | 3 kts | 281° |
| 2026-04-23 10:38 | -42.82947 | 147.47748 | 62 ft | 1 kts | 279° |
| 2026-04-23 10:38 | -42.82946 | 147.47743 | 55 ft | 0 kts | 276° |